createdAt,value
2018-04-25T00:00:30.107Z,62.61
2018-04-25T00:03:02.603Z,62.29
2018-04-25T00:05:35.204Z,62.62
2018-04-25T00:08:07.700Z,62.53
2018-04-25T00:10:40.280Z,62.37
2018-04-25T00:13:12.875Z,62.81
2018-04-25T00:15:45.399Z,62.98
2018-04-25T00:18:17.935Z,63.57
2018-04-25T00:20:50.448Z,63.30
2018-04-25T00:23:22.959Z,62.79
2018-04-25T00:25:55.471Z,63.09
2018-04-25T00:28:28.167Z,62.97
2018-04-25T00:31:00.755Z,63.05
2018-04-25T00:33:33.406Z,62.82
2018-04-25T00:36:05.915Z,63.11
2018-04-25T00:38:38.519Z,62.77
2018-04-25T00:41:11.100Z,62.85
2018-04-25T00:43:43.691Z,62.84
2018-04-25T00:46:16.200Z,62.60
2018-04-25T00:48:48.722Z,62.54
2018-04-25T00:51:21.219Z,62.32
2018-04-25T00:53:53.827Z,62.12
2018-04-25T00:56:26.406Z,62.15
2018-04-25T00:58:58.925Z,62.04
2018-04-25T01:01:31.662Z,62.71
2018-04-25T01:04:04.267Z,62.31
2018-04-25T01:06:36.770Z,62.63
2018-04-25T01:09:09.286Z,62.77
2018-04-25T01:11:41.799Z,62.93
2018-04-25T01:14:14.422Z,62.79
2018-04-25T01:16:46.916Z,62.36
2018-04-25T01:19:19.476Z,62.45
2018-04-25T01:21:51.963Z,62.17
2018-04-25T01:24:24.484Z,62.61
2018-04-25T01:27:03.702Z,62.34
2018-04-25T01:29:43.447Z,62.40
2018-04-25T01:32:16.047Z,62.90
2018-04-25T01:34:58.008Z,62.74
2018-04-25T01:37:35.531Z,62.58
2018-04-25T01:40:09.439Z,63.09
2018-04-25T01:42:43.558Z,63.36
2018-04-25T01:45:23.984Z,62.98
2018-04-25T01:48:00.070Z,62.62
2018-04-25T01:50:37.352Z,62.69
2018-04-25T01:53:21.739Z,63.20
2018-04-25T01:56:05.998Z,62.99
2018-04-25T01:58:50.427Z,63.13
2018-04-25T02:01:22.505Z,63.08
2018-04-25T02:03:55.940Z,63.71
2018-04-25T02:06:28.461Z,63.08
2018-04-25T02:09:00.959Z,64.14
2018-04-25T02:11:34.227Z,64.29
2018-04-25T02:14:06.726Z,63.73
2018-04-25T02:16:39.238Z,63.46
2018-04-25T02:19:11.747Z,63.30
2018-04-25T02:21:44.280Z,63.50
2018-04-25T02:24:16.789Z,63.21
2018-04-25T02:26:49.304Z,63.37
2018-04-25T02:29:21.867Z,63.31
2018-04-25T02:31:54.406Z,63.30
2018-04-25T02:34:26.924Z,62.68
2018-04-25T02:36:59.452Z,62.43
2018-04-25T02:39:32.454Z,62.62
2018-04-25T02:42:04.993Z,62.52
2018-04-25T02:44:37.595Z,63.42
2018-04-25T02:47:10.169Z,63.35
2018-04-25T02:49:42.754Z,63.72
2018-04-25T02:52:15.274Z,64.02
2018-04-25T02:54:48.230Z,64.21
2018-04-25T02:57:20.813Z,64.65
2018-04-25T02:59:53.312Z,64.20
2018-04-25T03:02:25.836Z,64.88
2018-04-25T03:04:58.332Z,65.35
2018-04-25T03:07:30.965Z,64.19
2018-04-25T03:10:04.212Z,65.29
2018-04-25T03:12:36.731Z,65.45
2018-04-25T03:15:09.225Z,65.38
2018-04-25T03:17:41.740Z,64.95
2018-04-25T03:20:14.235Z,64.90
2018-04-25T03:22:46.751Z,65.61
2018-04-25T03:25:19.244Z,66.02
2018-04-25T03:27:51.755Z,66.70
2018-04-25T03:30:24.256Z,66.43
2018-04-25T03:32:56.808Z,66.17
2018-04-25T03:35:29.303Z,66.45
2018-04-25T03:38:02.770Z,66.54
2018-04-25T03:40:35.290Z,66.82
2018-04-25T03:43:07.876Z,68.37
2018-04-25T03:45:40.375Z,67.76
2018-04-25T03:48:12.895Z,68.13
2018-04-25T03:50:45.395Z,68.61
2018-04-25T03:53:18.003Z,70.58
2018-04-25T03:55:50.532Z,69.15
2018-04-25T03:58:23.025Z,69.29
2018-04-25T04:00:55.544Z,69.27
2018-04-25T04:03:28.146Z,69.68
2018-04-25T04:06:00.686Z,68.54
2018-04-25T04:08:34.031Z,69.24
2018-04-25T04:11:06.615Z,69.21
2018-04-25T04:13:39.143Z,69.08
2018-04-25T04:16:11.693Z,68.21
2018-04-25T04:18:44.287Z,68.34
2018-04-25T04:21:16.863Z,67.50
2018-04-25T04:23:50.476Z,68.08
2018-04-25T04:26:23.059Z,68.60
2018-04-25T04:28:55.567Z,68.21
2018-04-25T04:31:28.093Z,68.01
2018-04-25T04:34:00.708Z,68.64
2018-04-25T04:39:13.350Z,69.09
2018-04-25T04:41:45.875Z,68.98
2018-04-25T04:44:18.374Z,69.07
2018-04-25T04:46:50.900Z,69.73
2018-04-25T04:49:23.553Z,68.49
2018-04-25T04:51:56.047Z,68.63
2018-04-25T04:54:28.563Z,67.96
2018-04-25T04:57:01.089Z,68.33
2018-04-25T04:59:34.574Z,68.34
2018-04-25T05:02:07.147Z,68.27
2018-04-25T05:04:39.727Z,68.21
2018-04-25T05:07:12.243Z,68.20
2018-04-25T05:09:44.738Z,68.24
2018-04-25T05:12:17.285Z,68.03
2018-04-25T05:14:49.780Z,68.35
2018-04-25T05:17:22.354Z,68.53
2018-04-25T05:19:54.844Z,68.36
2018-04-25T05:22:27.428Z,68.37
2018-04-25T05:24:59.981Z,68.23
2018-04-25T05:27:32.840Z,68.00
2018-04-25T05:30:05.344Z,67.83
2018-04-25T05:32:37.861Z,67.77
2018-04-25T05:35:10.353Z,67.76
2018-04-25T05:37:42.947Z,66.24
2018-04-25T05:40:15.533Z,67.78
2018-04-25T05:42:48.115Z,67.44
2018-04-25T05:45:20.609Z,68.10
2018-04-25T05:47:53.120Z,68.17
2018-04-25T05:50:25.624Z,67.76
2018-04-25T05:52:58.146Z,68.25
2018-04-25T05:55:30.772Z,66.60
2018-04-25T05:58:04.047Z,67.36
2018-04-25T06:00:36.547Z,67.09
2018-04-25T06:03:09.068Z,66.63
2018-04-25T06:05:41.564Z,66.03
2018-04-25T06:08:14.075Z,66.01
2018-04-25T06:10:46.567Z,65.81
2018-04-25T06:13:19.086Z,64.70
2018-04-25T06:15:51.590Z,63.04
2018-04-25T06:18:24.103Z,58.83
2018-04-25T06:20:56.691Z,56.52
2018-04-25T06:23:29.218Z,56.65
2018-04-25T06:26:01.787Z,54.64
2018-04-25T06:28:34.300Z,55.29
2018-04-25T06:31:06.795Z,56.37
2018-04-25T06:33:39.318Z,56.60
2018-04-25T06:36:11.818Z,56.95
2018-04-25T06:38:44.344Z,57.70
2018-04-25T06:41:16.840Z,58.73
2018-04-25T06:43:49.606Z,59.56
2018-04-25T06:46:22.199Z,59.67
2018-04-25T06:48:54.732Z,59.33
2018-04-25T06:51:27.315Z,59.85
2018-04-25T06:53:59.835Z,59.76
2018-04-25T06:56:32.690Z,60.07
2018-04-25T06:59:05.202Z,58.54
2018-04-25T07:01:37.706Z,60.11
2018-04-25T07:04:10.254Z,60.53
2018-04-25T07:06:42.835Z,60.42
2018-04-25T07:09:15.417Z,59.22
2018-04-25T07:11:48.012Z,60.29
2018-04-25T07:14:20.532Z,59.93
2018-04-25T07:16:53.070Z,60.04
2018-04-25T07:19:25.588Z,59.47
2018-04-25T07:21:58.103Z,58.61
2018-04-25T07:24:30.627Z,58.25
2018-04-25T07:27:03.894Z,59.18
2018-04-25T07:29:36.477Z,58.33
2018-04-25T07:32:09.006Z,58.10
2018-04-25T07:34:41.493Z,58.17
2018-04-25T07:37:14.091Z,58.00
2018-04-25T07:39:46.663Z,57.68
2018-04-25T07:42:19.174Z,55.40
2018-04-25T07:44:51.666Z,54.22
2018-04-25T07:47:24.181Z,56.61
2018-04-25T07:49:56.668Z,57.13
2018-04-25T07:52:29.209Z,56.61
2018-04-25T07:55:01.816Z,56.13
2018-04-25T07:57:34.359Z,56.45
2018-04-25T08:00:06.940Z,52.56
2018-04-25T08:02:39.524Z,54.23
2018-04-25T08:05:12.015Z,55.37
2018-04-25T08:07:44.613Z,54.27
2018-04-25T08:10:17.108Z,55.38
2018-04-25T08:13:01.744Z,55.61
2018-04-25T08:15:46.012Z,53.13
2018-04-25T08:18:30.376Z,51.34
2018-04-25T08:24:07.907Z,52.65
2018-04-25T08:26:40.397Z,53.19
2018-04-25T08:29:12.904Z,51.67
2018-04-25T08:31:45.401Z,50.80
2018-04-25T08:34:17.975Z,50.56
2018-04-25T08:36:50.447Z,49.36
2018-04-25T08:39:22.960Z,47.77
2018-04-25T08:41:56.063Z,48.84
2018-04-25T08:44:28.691Z,47.65
2018-04-25T08:47:03.020Z,49.86
2018-04-25T08:49:35.526Z,48.80
2018-04-25T08:52:08.031Z,47.75
2018-04-25T08:54:40.571Z,46.70
2018-04-25T08:57:13.057Z,46.37
2018-04-25T08:59:45.570Z,47.79
2018-04-25T09:02:18.064Z,49.79
2018-04-25T09:04:50.605Z,48.07
2018-04-25T09:07:23.091Z,47.32
2018-04-25T09:09:55.607Z,47.77
2018-04-25T09:12:28.107Z,46.78
2018-04-25T09:15:00.615Z,48.12
2018-04-25T09:17:33.950Z,46.00
2018-04-25T09:20:06.462Z,43.69
2018-04-25T09:22:39.020Z,44.79
2018-04-25T09:25:11.605Z,46.37
2018-04-25T09:27:44.090Z,47.59
2018-04-25T09:30:16.599Z,43.73
2018-04-25T09:32:49.150Z,44.04
2018-04-25T09:35:21.656Z,43.56
2018-04-25T09:37:54.144Z,42.37
2018-04-25T09:40:26.703Z,42.36
2018-04-25T09:42:59.287Z,43.01
2018-04-25T09:45:31.789Z,39.74
2018-04-25T09:48:04.367Z,39.94
2018-04-25T09:50:36.891Z,39.51
2018-04-25T09:53:09.383Z,41.71
2018-04-25T09:55:41.904Z,41.50
2018-04-25T09:58:14.386Z,42.71
2018-04-25T10:00:52.437Z,43.09
2018-04-25T10:03:25.928Z,42.52
2018-04-25T10:05:58.446Z,42.20
2018-04-25T10:08:30.997Z,42.00
2018-04-25T10:11:04.255Z,43.28
2018-04-25T10:13:36.779Z,42.79
2018-04-25T10:16:09.368Z,43.29
2018-04-25T10:18:41.881Z,43.50
2018-04-25T10:21:14.446Z,43.40
2018-04-25T10:23:46.958Z,44.39
2018-04-25T10:26:19.463Z,43.38
2018-04-25T10:28:51.991Z,43.45
2018-04-25T10:31:24.481Z,43.00
2018-04-25T10:33:56.992Z,43.83
2018-04-25T10:36:29.476Z,43.23
2018-04-25T10:39:02.644Z,43.56
2018-04-25T10:41:35.135Z,42.58
2018-04-25T10:44:08.019Z,42.74
2018-04-25T10:46:40.498Z,43.09
2018-04-25T10:49:13.011Z,43.50
2018-04-25T10:51:45.503Z,43.47
2018-04-25T10:54:18.012Z,44.11
2018-04-25T10:56:50.530Z,45.37
2018-04-25T10:59:23.038Z,45.20
2018-04-25T11:01:55.518Z,44.27
2018-04-25T11:04:28.142Z,44.89
2018-04-25T11:07:00.595Z,44.81
2018-04-25T11:09:33.919Z,45.52
2018-04-25T11:12:06.471Z,45.70
2018-04-25T11:14:38.982Z,45.57
2018-04-25T11:17:11.467Z,46.27
2018-04-25T11:19:43.971Z,45.46
2018-04-25T11:22:16.458Z,46.02
2018-04-25T11:24:48.964Z,46.83
2018-04-25T11:27:21.500Z,46.12
2018-04-25T11:29:53.978Z,46.32
2018-04-25T11:32:26.550Z,46.23
2018-04-25T11:34:59.059Z,46.18
2018-04-25T11:37:31.612Z,46.22
2018-04-25T11:40:04.128Z,46.47
2018-04-25T11:42:36.620Z,45.95
2018-04-25T11:45:09.133Z,45.89
2018-04-25T11:47:41.616Z,45.97
2018-04-25T11:50:14.124Z,45.58
2018-04-25T11:52:46.615Z,45.21
2018-04-25T11:55:19.205Z,46.07
2018-04-25T11:57:51.694Z,46.51
2018-04-25T12:00:24.199Z,46.47
2018-04-25T12:02:56.771Z,46.14
2018-04-25T12:05:29.208Z,45.84
2018-04-25T12:08:01.852Z,45.81
2018-04-25T12:10:34.519Z,45.48
2018-04-25T12:13:07.051Z,45.59
2018-04-25T12:15:39.636Z,46.46
2018-04-25T12:18:12.182Z,45.44
2018-04-25T12:20:44.688Z,46.02
2018-04-25T12:23:17.246Z,45.61
2018-04-25T12:25:49.760Z,45.95
2018-04-25T12:28:22.253Z,46.31
2018-04-25T12:30:54.767Z,46.29
2018-04-25T12:33:27.292Z,45.64
2018-04-25T12:35:59.863Z,45.61
2018-04-25T12:38:32.599Z,44.89
2018-04-25T12:41:05.119Z,44.84
2018-04-25T12:43:37.631Z,45.12
2018-04-25T12:46:10.144Z,45.12
2018-04-25T12:48:42.705Z,46.39
2018-04-25T12:51:15.224Z,45.78
2018-04-25T12:53:47.720Z,46.21
2018-04-25T12:56:20.227Z,46.11
2018-04-25T12:58:52.724Z,46.01
2018-04-25T13:01:25.232Z,46.22
2018-04-25T13:03:57.732Z,45.95
2018-04-25T13:06:30.236Z,45.54
2018-04-25T13:09:02.740Z,46.00
2018-04-25T13:11:35.259Z,46.53
2018-04-25T13:14:07.760Z,46.44
2018-04-25T13:16:40.315Z,46.25
2018-04-25T13:19:12.905Z,46.40
2018-04-25T13:21:45.490Z,46.14
2018-04-25T13:24:17.979Z,45.52
2018-04-25T13:26:50.503Z,45.70
2018-04-25T13:29:22.992Z,46.15
2018-04-25T13:31:56.085Z,46.09
2018-04-25T13:34:28.574Z,45.55
2018-04-25T13:37:01.111Z,46.32
2018-04-25T13:39:34.827Z,47.03
2018-04-25T13:42:07.343Z,47.14
2018-04-25T13:44:39.839Z,47.73
2018-04-25T13:47:12.372Z,47.59
2018-04-25T13:49:44.871Z,46.74
2018-04-25T13:52:17.387Z,47.74
2018-04-25T13:54:49.923Z,47.64
2018-04-25T13:57:22.434Z,47.49
2018-04-25T13:59:54.975Z,46.97
2018-04-25T14:02:27.574Z,47.73
2018-04-25T14:05:00.163Z,47.88
2018-04-25T14:07:32.657Z,48.76
2018-04-25T14:10:05.174Z,49.53
2018-04-25T14:12:37.674Z,49.71
2018-04-25T14:15:10.199Z,50.07
2018-04-25T14:17:42.701Z,50.71
2018-04-25T14:20:15.213Z,50.42
2018-04-25T14:22:47.723Z,49.73
2018-04-25T14:25:20.344Z,50.43
2018-04-25T14:27:52.844Z,50.79
2018-04-25T14:30:25.404Z,51.71
2018-04-25T14:32:57.857Z,52.04
2018-04-25T14:35:30.414Z,51.96
2018-04-25T14:38:03.825Z,50.60
2018-04-25T14:40:36.360Z,50.57
2018-04-25T14:43:08.863Z,50.06
2018-04-25T14:45:41.373Z,49.95
2018-04-25T14:48:13.878Z,49.27
2018-04-25T14:50:46.494Z,48.92
2018-04-25T14:53:19.076Z,48.54
2018-04-25T14:55:51.592Z,48.70
2018-04-25T14:58:24.091Z,48.54
2018-04-25T15:00:56.639Z,48.25
2018-04-25T15:03:29.150Z,48.01
2018-04-25T15:06:01.728Z,47.41
2018-04-25T15:08:34.214Z,47.70
2018-04-25T15:11:06.731Z,47.67
2018-04-25T15:13:39.488Z,48.12
2018-04-25T15:16:12.268Z,47.64
2018-04-25T15:18:44.787Z,47.36
2018-04-25T15:21:17.294Z,47.39
2018-04-25T15:23:49.793Z,46.37
2018-04-25T15:26:22.611Z,46.78
2018-04-25T15:28:55.287Z,46.48
2018-04-25T15:31:27.885Z,46.36
2018-04-25T15:34:00.458Z,46.80
2018-04-25T15:36:33.770Z,46.58
2018-04-25T15:39:06.278Z,47.18
2018-04-25T15:41:38.795Z,46.70
2018-04-25T15:44:11.310Z,46.17
2018-04-25T15:46:43.938Z,45.99
2018-04-25T15:49:16.483Z,46.77
2018-04-25T15:51:48.996Z,46.84
2018-04-25T15:54:21.554Z,47.34
2018-04-25T15:56:54.073Z,47.45
2018-04-25T15:59:26.572Z,47.77
2018-04-25T16:01:59.093Z,47.48
2018-04-25T16:04:31.705Z,47.00
2018-04-25T16:07:04.229Z,47.07
2018-04-25T16:09:36.738Z,47.49
2018-04-25T16:12:09.359Z,47.86
2018-04-25T16:14:41.818Z,47.88
2018-04-25T16:17:14.328Z,47.86
2018-04-25T16:19:46.902Z,48.41
2018-04-25T16:22:19.442Z,49.80
2018-04-25T16:24:51.955Z,51.21
2018-04-25T16:27:24.467Z,52.42
2018-04-25T16:29:56.964Z,53.77
2018-04-25T16:32:29.471Z,54.06
2018-04-25T16:35:02.574Z,54.42
2018-04-25T16:37:35.088Z,54.89
2018-04-25T16:40:07.582Z,54.77
2018-04-25T16:42:40.104Z,54.75
2018-04-25T16:45:12.657Z,54.66
2018-04-25T16:47:45.230Z,54.43
2018-04-25T16:50:17.723Z,54.79
2018-04-25T16:52:50.231Z,54.76
2018-04-25T16:55:22.875Z,54.70
2018-04-25T16:57:55.470Z,54.30
2018-04-25T17:00:28.181Z,54.87
2018-04-25T17:03:00.862Z,54.88
2018-04-25T17:05:34.007Z,55.33
2018-04-25T17:08:06.538Z,55.47
2018-04-25T17:10:39.074Z,55.50
2018-04-25T17:13:11.604Z,55.92
2018-04-25T17:15:44.207Z,55.72
2018-04-25T17:18:16.743Z,55.08
2018-04-25T17:20:49.231Z,55.11
2018-04-25T17:23:21.844Z,53.98
2018-04-25T17:25:54.335Z,52.06
2018-04-25T17:28:26.927Z,51.59
2018-04-25T17:30:59.428Z,51.54
2018-04-25T17:33:33.313Z,51.58
2018-04-25T17:36:05.888Z,52.39
2018-04-25T17:38:38.392Z,52.73
2018-04-25T17:41:10.919Z,53.25
2018-04-25T17:43:43.444Z,53.27
2018-04-25T17:46:15.947Z,53.39
2018-04-25T17:48:48.450Z,53.57
2018-04-25T17:51:21.261Z,53.75
2018-04-25T17:53:53.816Z,53.89
2018-04-25T17:56:26.379Z,54.00
2018-04-25T17:58:58.865Z,54.03
2018-04-25T18:01:31.610Z,54.42
2018-04-25T18:04:04.151Z,54.65
2018-04-25T18:06:36.672Z,54.65
2018-04-25T18:09:09.198Z,54.55
2018-04-25T18:11:41.710Z,54.41
2018-04-25T18:14:14.294Z,54.77
2018-04-25T18:16:46.836Z,55.02
2018-04-25T18:19:19.345Z,55.51
2018-04-25T18:21:51.872Z,55.85
2018-04-25T18:24:24.366Z,56.23
2018-04-25T18:26:56.987Z,56.54
2018-04-25T18:29:29.480Z,56.85
2018-04-25T18:32:02.538Z,56.85
2018-04-25T18:34:35.059Z,56.98
2018-04-25T18:37:07.747Z,57.00
2018-04-25T18:39:40.327Z,57.10
2018-04-25T18:42:12.915Z,57.12
2018-04-25T18:44:45.502Z,57.23
2018-04-25T18:47:18.015Z,57.23
2018-04-25T18:49:50.567Z,56.94
2018-04-25T18:52:23.091Z,56.86
2018-04-25T18:54:55.599Z,56.94
2018-04-25T18:57:28.125Z,56.87
2018-04-25T19:00:00.711Z,57.08
2018-04-25T19:02:34.023Z,57.18
2018-04-25T19:05:06.606Z,57.25
2018-04-25T19:07:39.119Z,57.25
2018-04-25T19:10:11.608Z,57.21
2018-04-25T19:12:44.154Z,57.41
2018-04-25T19:15:16.681Z,57.55
2018-04-25T19:17:49.235Z,58.04
2018-04-25T19:20:21.747Z,58.27
2018-04-25T19:22:54.255Z,58.13
2018-04-25T19:25:26.778Z,58.49
2018-04-25T19:27:59.362Z,58.20
2018-04-25T19:30:32.464Z,57.88
2018-04-25T19:33:05.037Z,57.84
2018-04-25T19:35:37.515Z,57.67
2018-04-25T19:38:10.033Z,57.67
2018-04-25T19:40:42.529Z,57.38
2018-04-25T19:43:15.097Z,57.42
2018-04-25T19:45:47.592Z,57.17
2018-04-25T19:48:20.099Z,57.27
2018-04-25T19:50:52.628Z,57.07
2018-04-25T19:53:25.144Z,56.98
2018-04-25T19:55:57.640Z,57.04
2018-04-25T19:58:30.148Z,56.97
2018-04-25T20:01:02.667Z,57.04
2018-04-25T20:03:35.189Z,57.09
2018-04-25T20:06:07.740Z,56.90
2018-04-25T20:08:40.318Z,57.08
2018-04-25T20:11:12.808Z,57.12
2018-04-25T20:13:45.399Z,57.08
2018-04-25T20:16:17.900Z,56.71
2018-04-25T20:18:50.460Z,56.80
2018-04-25T20:21:22.957Z,56.98
2018-04-25T20:23:55.535Z,57.02
2018-04-25T20:26:28.034Z,57.11
2018-04-25T20:29:00.596Z,57.14
2018-04-25T20:31:33.813Z,57.20
2018-04-25T20:34:06.325Z,57.11
2018-04-25T20:36:38.875Z,57.11
2018-04-25T20:39:11.391Z,57.13
2018-04-25T20:41:43.875Z,57.19
2018-04-25T20:44:16.399Z,56.96
2018-04-25T20:46:48.901Z,57.00
2018-04-25T20:49:21.415Z,57.27
2018-04-25T20:51:53.967Z,57.48
2018-04-25T20:54:26.493Z,57.13
2018-04-25T20:56:59.021Z,57.24
2018-04-25T20:59:31.661Z,57.13
2018-04-25T21:02:04.151Z,57.43
2018-04-25T21:04:36.665Z,57.24
2018-04-25T21:07:09.185Z,57.35
2018-04-25T21:09:41.679Z,57.21
2018-04-25T21:12:14.190Z,57.23
2018-04-25T21:14:46.679Z,57.40
2018-04-25T21:17:19.272Z,57.38
2018-04-25T21:19:51.702Z,57.78
2018-04-25T21:22:24.290Z,57.54
2018-04-25T21:24:56.806Z,57.77
2018-04-25T21:27:29.314Z,57.49
2018-04-25T21:30:02.063Z,57.46
2018-04-25T21:32:34.631Z,57.75
2018-04-25T21:35:07.123Z,57.56
2018-04-25T21:37:39.695Z,57.52
2018-04-25T21:40:12.187Z,57.46
2018-04-25T21:42:44.700Z,57.71
2018-04-25T21:45:17.260Z,57.59
2018-04-25T21:47:49.848Z,57.52
2018-04-25T21:50:22.360Z,57.76
2018-04-25T21:52:54.904Z,58.10
2018-04-25T21:55:27.390Z,58.42
2018-04-25T21:57:59.952Z,58.62
2018-04-25T22:00:32.745Z,58.68
2018-04-25T22:03:05.354Z,58.80
2018-04-25T22:05:37.855Z,58.88
2018-04-25T22:08:10.363Z,58.83
2018-04-25T22:10:42.855Z,58.65
2018-04-25T22:13:15.374Z,58.97
2018-04-25T22:15:47.865Z,58.79
2018-04-25T22:18:20.424Z,58.79
2018-04-25T22:20:52.915Z,58.64
2018-04-25T22:23:25.428Z,58.54
2018-04-25T22:25:57.920Z,58.69
2018-04-25T22:28:30.438Z,58.75
2018-04-25T22:31:03.699Z,58.46
2018-04-25T22:33:36.249Z,58.47
2018-04-25T22:36:08.737Z,58.39
2018-04-25T22:38:41.255Z,58.49
2018-04-25T22:41:13.892Z,58.71
2018-04-25T22:43:46.434Z,58.50
2018-04-25T22:46:19.017Z,58.44
2018-04-25T22:48:51.586Z,58.73
2018-04-25T22:51:24.033Z,59.01
2018-04-25T22:53:56.575Z,59.13
2018-04-25T22:56:29.069Z,59.34
2018-04-25T22:59:01.662Z,59.16
2018-04-25T23:01:34.248Z,59.06
2018-04-25T23:04:06.824Z,59.28
2018-04-25T23:06:39.316Z,59.26
2018-04-25T23:09:11.830Z,59.56
2018-04-25T23:11:44.319Z,59.31
2018-04-25T23:14:16.847Z,59.33
2018-04-25T23:16:49.435Z,59.39
2018-04-25T23:19:21.958Z,59.52
2018-04-25T23:21:54.577Z,59.41
2018-04-25T23:24:27.105Z,59.74
2018-04-25T23:26:59.593Z,59.79
2018-04-25T23:29:32.991Z,59.59
2018-04-25T23:32:05.491Z,59.60
2018-04-25T23:34:37.994Z,59.69
2018-04-25T23:37:10.479Z,59.88
2018-04-25T23:39:42.991Z,59.18
2018-04-25T23:42:15.479Z,58.95
2018-04-25T23:44:47.998Z,58.84
2018-04-25T23:47:20.549Z,58.82
2018-04-25T23:49:53.060Z,58.62
2018-04-25T23:52:25.547Z,58.43
2018-04-25T23:54:58.087Z,58.26
2018-04-25T23:57:30.579Z,58.67
